sensor_id;sensor_type;location;lat;lon;timestamp;P1;durP1;ratioP1;P2;durP2;ratioP2
30948;SDS011;17637;51.984;21.208;2022-07-21T00:01:23;9.68;;;6.68;;
30948;SDS011;17637;51.984;21.208;2022-07-21T00:06:26;9.70;;;6.80;;
30948;SDS011;17637;51.984;21.208;2022-07-21T00:11:29;9.45;;;6.28;;
30948;SDS011;17637;51.984;21.208;2022-07-21T00:16:34;7.13;;;5.70;;
30948;SDS011;17637;51.984;21.208;2022-07-21T00:21:38;9.95;;;5.72;;
30948;SDS011;17637;51.984;21.208;2022-07-21T00:26:41;6.82;;;5.75;;
30948;SDS011;17637;51.984;21.208;2022-07-21T00:31:46;8.00;;;6.22;;
30948;SDS011;17637;51.984;21.208;2022-07-21T00:36:49;9.07;;;6.03;;
30948;SDS011;17637;51.984;21.208;2022-07-21T00:41:52;8.07;;;6.32;;
30948;SDS011;17637;51.984;21.208;2022-07-21T00:46:57;8.02;;;6.03;;
30948;SDS011;17637;51.984;21.208;2022-07-21T00:52:00;8.13;;;6.50;;
30948;SDS011;17637;51.984;21.208;2022-07-21T00:57:04;8.57;;;6.28;;
30948;SDS011;17637;51.984;21.208;2022-07-21T01:02:09;8.68;;;5.90;;
30948;SDS011;17637;51.984;21.208;2022-07-21T01:07:13;7.35;;;6.65;;
30948;SDS011;17637;51.984;21.208;2022-07-21T01:12:17;7.80;;;5.80;;
30948;SDS011;17637;51.984;21.208;2022-07-21T01:17:22;9.85;;;5.95;;
30948;SDS011;17637;51.984;21.208;2022-07-21T01:22:27;8.05;;;5.32;;
30948;SDS011;17637;51.984;21.208;2022-07-21T01:27:30;6.03;;;5.30;;
30948;SDS011;17637;51.984;21.208;2022-07-21T01:32:33;9.73;;;4.97;;
30948;SDS011;17637;51.984;21.208;2022-07-21T01:37:39;6.50;;;5.10;;
30948;SDS011;17637;51.984;21.208;2022-07-21T01:42:44;7.07;;;5.18;;
30948;SDS011;17637;51.984;21.208;2022-07-21T01:47:48;7.88;;;5.82;;
30948;SDS011;17637;51.984;21.208;2022-07-21T01:52:52;7.55;;;5.30;;
30948;SDS011;17637;51.984;21.208;2022-07-21T01:57:57;8.73;;;6.40;;
30948;SDS011;17637;51.984;21.208;2022-07-21T02:03:02;11.15;;;6.75;;
30948;SDS011;17637;51.984;21.208;2022-07-21T02:08:07;8.43;;;7.25;;
30948;SDS011;17637;51.984;21.208;2022-07-21T02:13:10;8.35;;;7.35;;
30948;SDS011;17637;51.984;21.208;2022-07-21T02:18:13;10.98;;;8.55;;
30948;SDS011;17637;51.984;21.208;2022-07-21T02:23:18;11.30;;;7.93;;
30948;SDS011;17637;51.984;21.208;2022-07-21T02:28:21;10.40;;;8.07;;
30948;SDS011;17637;51.984;21.208;2022-07-21T02:33:24;14.40;;;9.10;;
30948;SDS011;17637;51.984;21.208;2022-07-21T02:38:29;14.18;;;10.43;;
30948;SDS011;17637;51.984;21.208;2022-07-21T02:43:32;15.70;;;10.35;;
30948;SDS011;17637;51.984;21.208;2022-07-21T02:48:35;43.13;;;19.92;;
30948;SDS011;17637;51.984;21.208;2022-07-21T02:53:40;88.10;;;36.67;;
30948;SDS011;17637;51.984;21.208;2022-07-21T02:58:43;108.60;;;43.72;;
30948;SDS011;17637;51.984;21.208;2022-07-21T03:03:47;82.88;;;34.88;;
30948;SDS011;17637;51.984;21.208;2022-07-21T03:08:51;78.40;;;34.42;;
30948;SDS011;17637;51.984;21.208;2022-07-21T03:13:56;80.65;;;35.70;;
30948;SDS011;17637;51.984;21.208;2022-07-21T03:18:59;77.07;;;35.00;;
30948;SDS011;17637;51.984;21.208;2022-07-21T03:24:04;71.65;;;31.33;;
30948;SDS011;17637;51.984;21.208;2022-07-21T03:29:09;70.70;;;29.80;;
30948;SDS011;17637;51.984;21.208;2022-07-21T03:34:12;65.07;;;27.92;;
30948;SDS011;17637;51.984;21.208;2022-07-21T03:39:17;67.28;;;28.77;;
30948;SDS011;17637;51.984;21.208;2022-07-21T03:44:20;59.95;;;26.67;;
30948;SDS011;17637;51.984;21.208;2022-07-21T03:49:23;51.60;;;23.38;;
30948;SDS011;17637;51.984;21.208;2022-07-21T03:54:27;39.05;;;18.60;;
30948;SDS011;17637;51.984;21.208;2022-07-21T03:59:31;36.63;;;16.85;;
30948;SDS011;17637;51.984;21.208;2022-07-21T04:04:34;26.35;;;14.20;;
30948;SDS011;17637;51.984;21.208;2022-07-21T04:09:38;23.08;;;12.73;;
30948;SDS011;17637;51.984;21.208;2022-07-21T04:14:41;13.75;;;9.13;;
30948;SDS011;17637;51.984;21.208;2022-07-21T04:19:45;12.18;;;7.88;;
30948;SDS011;17637;51.984;21.208;2022-07-21T04:24:49;10.63;;;7.53;;
30948;SDS011;17637;51.984;21.208;2022-07-21T04:29:53;8.75;;;6.97;;
30948;SDS011;17637;51.984;21.208;2022-07-21T04:34:57;9.43;;;7.35;;
30948;SDS011;17637;51.984;21.208;2022-07-21T04:40:02;8.80;;;6.88;;
30948;SDS011;17637;51.984;21.208;2022-07-21T04:45:08;8.63;;;6.97;;
30948;SDS011;17637;51.984;21.208;2022-07-21T04:50:12;7.93;;;6.85;;
30948;SDS011;17637;51.984;21.208;2022-07-21T04:55:18;11.13;;;6.25;;
30948;SDS011;17637;51.984;21.208;2022-07-21T05:00:23;17.13;;;6.95;;
30948;SDS011;17637;51.984;21.208;2022-07-21T05:05:26;13.48;;;6.57;;
30948;SDS011;17637;51.984;21.208;2022-07-21T05:10:31;10.10;;;5.28;;
30948;SDS011;17637;51.984;21.208;2022-07-21T05:15:35;6.80;;;5.78;;
30948;SDS011;17637;51.984;21.208;2022-07-21T05:20:38;8.60;;;5.43;;
30948;SDS011;17637;51.984;21.208;2022-07-21T05:25:42;11.05;;;5.95;;
30948;SDS011;17637;51.984;21.208;2022-07-21T05:30:45;8.85;;;7.65;;
30948;SDS011;17637;51.984;21.208;2022-07-21T05:35:49;8.60;;;7.15;;
30948;SDS011;17637;51.984;21.208;2022-07-21T05:40:54;9.63;;;6.93;;
30948;SDS011;17637;51.984;21.208;2022-07-21T05:45:57;9.05;;;7.35;;
30948;SDS011;17637;51.984;21.208;2022-07-21T05:51:01;8.15;;;7.35;;
30948;SDS011;17637;51.984;21.208;2022-07-21T05:56:06;10.20;;;7.13;;
30948;SDS011;17637;51.984;21.208;2022-07-21T06:01:09;8.57;;;5.55;;
30948;SDS011;17637;51.984;21.208;2022-07-21T06:06:16;8.05;;;6.20;;
30948;SDS011;17637;51.984;21.208;2022-07-21T06:11:22;6.07;;;4.40;;
30948;SDS011;17637;51.984;21.208;2022-07-21T06:16:25;6.80;;;4.00;;
30948;SDS011;17637;51.984;21.208;2022-07-21T06:21:28;7.30;;;3.70;;
30948;SDS011;17637;51.984;21.208;2022-07-21T06:26:33;4.88;;;3.00;;
30948;SDS011;17637;51.984;21.208;2022-07-21T06:31:36;4.75;;;2.92;;
30948;SDS011;17637;51.984;21.208;2022-07-21T06:36:40;4.55;;;2.97;;
30948;SDS011;17637;51.984;21.208;2022-07-21T06:41:45;6.18;;;3.28;;
30948;SDS011;17637;51.984;21.208;2022-07-21T06:46:48;3.10;;;2.80;;
30948;SDS011;17637;51.984;21.208;2022-07-21T06:51:52;3.53;;;2.55;;
30948;SDS011;17637;51.984;21.208;2022-07-21T06:56:56;5.75;;;2.50;;
30948;SDS011;17637;51.984;21.208;2022-07-21T07:02:00;3.80;;;2.00;;
30948;SDS011;17637;51.984;21.208;2022-07-21T07:07:03;4.35;;;2.17;;
30948;SDS011;17637;51.984;21.208;2022-07-21T07:12:08;3.47;;;2.10;;
30948;SDS011;17637;51.984;21.208;2022-07-21T07:17:31;3.75;;;1.83;;
30948;SDS011;17637;51.984;21.208;2022-07-21T07:22:34;4.53;;;2.15;;
30948;SDS011;17637;51.984;21.208;2022-07-21T07:27:39;4.20;;;2.00;;
30948;SDS011;17637;51.984;21.208;2022-07-21T07:32:42;4.13;;;1.90;;
30948;SDS011;17637;51.984;21.208;2022-07-21T07:37:46;3.20;;;2.03;;
30948;SDS011;17637;51.984;21.208;2022-07-21T07:42:51;4.80;;;2.15;;
30948;SDS011;17637;51.984;21.208;2022-07-21T07:47:54;2.00;;;1.80;;
30948;SDS011;17637;51.984;21.208;2022-07-21T07:52:57;3.70;;;1.70;;
30948;SDS011;17637;51.984;21.208;2022-07-21T07:58:02;4.38;;;1.75;;
30948;SDS011;17637;51.984;21.208;2022-07-21T08:03:05;3.35;;;1.50;;
30948;SDS011;17637;51.984;21.208;2022-07-21T08:08:08;4.50;;;1.90;;
30948;SDS011;17637;51.984;21.208;2022-07-21T08:13:13;3.45;;;1.92;;
30948;SDS011;17637;51.984;21.208;2022-07-21T08:18:18;4.63;;;1.80;;
30948;SDS011;17637;51.984;21.208;2022-07-21T08:23:21;3.65;;;1.70;;
30948;SDS011;17637;51.984;21.208;2022-07-21T08:28:26;5.13;;;2.05;;
30948;SDS011;17637;51.984;21.208;2022-07-21T08:33:29;2.80;;;1.50;;
30948;SDS011;17637;51.984;21.208;2022-07-21T08:38:32;2.38;;;2.00;;
30948;SDS011;17637;51.984;21.208;2022-07-21T08:43:37;2.20;;;1.50;;
30948;SDS011;17637;51.984;21.208;2022-07-21T08:48:41;2.50;;;1.60;;
30948;SDS011;17637;51.984;21.208;2022-07-21T08:53:45;5.00;;;1.70;;
30948;SDS011;17637;51.984;21.208;2022-07-21T08:58:50;4.35;;;1.73;;
30948;SDS011;17637;51.984;21.208;2022-07-21T09:03:54;2.78;;;1.70;;
30948;SDS011;17637;51.984;21.208;2022-07-21T09:08:57;6.57;;;1.92;;
30948;SDS011;17637;51.984;21.208;2022-07-21T09:14:06;2.15;;;1.50;;
30948;SDS011;17637;51.984;21.208;2022-07-21T09:19:15;1.50;;;1.40;;
30948;SDS011;17637;51.984;21.208;2022-07-21T09:24:20;1.55;;;1.20;;
30948;SDS011;17637;51.984;21.208;2022-07-21T09:29:34;2.15;;;1.40;;
30948;SDS011;17637;51.984;21.208;2022-07-21T09:34:43;3.92;;;1.30;;
30948;SDS011;17637;51.984;21.208;2022-07-21T09:39:48;3.60;;;1.27;;
30948;SDS011;17637;51.984;21.208;2022-07-21T09:44:55;1.73;;;1.20;;
30948;SDS011;17637;51.984;21.208;2022-07-21T09:49:59;3.75;;;1.40;;
30948;SDS011;17637;51.984;21.208;2022-07-21T09:55:23;1.65;;;1.10;;
30948;SDS011;17637;51.984;21.208;2022-07-21T10:00:28;3.03;;;1.40;;
30948;SDS011;17637;51.984;21.208;2022-07-21T10:05:31;1.15;;;1.00;;
30948;SDS011;17637;51.984;21.208;2022-07-21T10:10:35;2.50;;;1.17;;
30948;SDS011;17637;51.984;21.208;2022-07-21T10:15:59;1.65;;;1.20;;
30948;SDS011;17637;51.984;21.208;2022-07-21T10:21:04;1.70;;;1.30;;
30948;SDS011;17637;51.984;21.208;2022-07-21T10:26:13;4.03;;;1.70;;
30948;SDS011;17637;51.984;21.208;2022-07-21T10:31:19;2.63;;;1.58;;
30948;SDS011;17637;51.984;21.208;2022-07-21T10:36:40;2.88;;;1.30;;
30948;SDS011;17637;51.984;21.208;2022-07-21T10:41:45;2.75;;;1.20;;
30948;SDS011;17637;51.984;21.208;2022-07-21T10:46:58;1.77;;;1.20;;
30948;SDS011;17637;51.984;21.208;2022-07-21T10:52:02;3.42;;;1.40;;
30948;SDS011;17637;51.984;21.208;2022-07-21T10:57:24;2.83;;;1.80;;
30948;SDS011;17637;51.984;21.208;2022-07-21T11:02:32;2.53;;;1.27;;
30948;SDS011;17637;51.984;21.208;2022-07-21T11:13:12;3.45;;;1.40;;
30948;SDS011;17637;51.984;21.208;2022-07-21T11:18:18;5.55;;;1.55;;
30948;SDS011;17637;51.984;21.208;2022-07-21T11:23:22;3.38;;;1.55;;
30948;SDS011;17637;51.984;21.208;2022-07-21T11:28:36;4.78;;;1.63;;
30948;SDS011;17637;51.984;21.208;2022-07-21T11:33:43;3.17;;;1.23;;
30948;SDS011;17637;51.984;21.208;2022-07-21T11:38:56;2.30;;;1.27;;
30948;SDS011;17637;51.984;21.208;2022-07-21T11:44:00;1.65;;;1.48;;
30948;SDS011;17637;51.984;21.208;2022-07-21T11:49:05;3.03;;;1.60;;
30948;SDS011;17637;51.984;21.208;2022-07-21T11:54:18;2.95;;;1.73;;
30948;SDS011;17637;51.984;21.208;2022-07-21T11:59:23;2.70;;;1.58;;
30948;SDS011;17637;51.984;21.208;2022-07-21T12:04:32;17.88;;;3.95;;
30948;SDS011;17637;51.984;21.208;2022-07-21T12:09:41;4.45;;;1.58;;
30948;SDS011;17637;51.984;21.208;2022-07-21T12:14:52;4.78;;;1.60;;
30948;SDS011;17637;51.984;21.208;2022-07-21T12:20:06;3.92;;;1.88;;
30948;SDS011;17637;51.984;21.208;2022-07-21T12:25:11;3.85;;;2.13;;
30948;SDS011;17637;51.984;21.208;2022-07-21T12:30:32;3.80;;;1.83;;
30948;SDS011;17637;51.984;21.208;2022-07-21T12:35:41;4.93;;;1.90;;
30948;SDS011;17637;51.984;21.208;2022-07-21T12:40:49;4.05;;;1.80;;
30948;SDS011;17637;51.984;21.208;2022-07-21T12:46:27;2.47;;;1.75;;
30948;SDS011;17637;51.984;21.208;2022-07-21T12:51:35;4.18;;;1.73;;
30948;SDS011;17637;51.984;21.208;2022-07-21T12:56:40;2.25;;;1.73;;
30948;SDS011;17637;51.984;21.208;2022-07-21T13:01:45;1.92;;;1.60;;
30948;SDS011;17637;51.984;21.208;2022-07-21T13:06:52;3.13;;;1.90;;
30948;SDS011;17637;51.984;21.208;2022-07-21T13:11:59;4.38;;;1.70;;
30948;SDS011;17637;51.984;21.208;2022-07-21T13:17:10;4.40;;;2.10;;
30948;SDS011;17637;51.984;21.208;2022-07-21T13:22:19;4.75;;;2.03;;
30948;SDS011;17637;51.984;21.208;2022-07-21T13:27:24;4.40;;;1.90;;
30948;SDS011;17637;51.984;21.208;2022-07-21T13:32:28;3.13;;;1.67;;
30948;SDS011;17637;51.984;21.208;2022-07-21T13:37:35;5.78;;;2.55;;
30948;SDS011;17637;51.984;21.208;2022-07-21T13:42:41;5.22;;;2.03;;
30948;SDS011;17637;51.984;21.208;2022-07-21T13:48:07;5.75;;;2.28;;
30948;SDS011;17637;51.984;21.208;2022-07-21T13:53:12;3.97;;;2.15;;
30948;SDS011;17637;51.984;21.208;2022-07-21T13:58:16;6.38;;;2.15;;
30948;SDS011;17637;51.984;21.208;2022-07-21T14:03:20;6.57;;;2.30;;
30948;SDS011;17637;51.984;21.208;2022-07-21T14:08:28;3.20;;;1.80;;
30948;SDS011;17637;51.984;21.208;2022-07-21T14:13:32;4.35;;;2.15;;
30948;SDS011;17637;51.984;21.208;2022-07-21T14:18:36;3.88;;;2.13;;
30948;SDS011;17637;51.984;21.208;2022-07-21T14:23:42;4.10;;;2.10;;
30948;SDS011;17637;51.984;21.208;2022-07-21T14:28:47;3.85;;;2.00;;
30948;SDS011;17637;51.984;21.208;2022-07-21T14:33:52;4.65;;;1.90;;
30948;SDS011;17637;51.984;21.208;2022-07-21T14:39:01;5.22;;;1.80;;
30948;SDS011;17637;51.984;21.208;2022-07-21T14:44:06;3.70;;;2.08;;
30948;SDS011;17637;51.984;21.208;2022-07-21T14:49:09;3.45;;;2.17;;
30948;SDS011;17637;51.984;21.208;2022-07-21T14:54:15;4.47;;;2.13;;
30948;SDS011;17637;51.984;21.208;2022-07-21T14:59:19;2.45;;;2.00;;
30948;SDS011;17637;51.984;21.208;2022-07-21T15:04:23;4.30;;;2.83;;
30948;SDS011;17637;51.984;21.208;2022-07-21T15:09:30;4.38;;;2.05;;
30948;SDS011;17637;51.984;21.208;2022-07-21T15:14:34;4.20;;;2.05;;
30948;SDS011;17637;51.984;21.208;2022-07-21T15:19:38;4.80;;;2.17;;
30948;SDS011;17637;51.984;21.208;2022-07-21T15:24:43;6.50;;;2.35;;
30948;SDS011;17637;51.984;21.208;2022-07-21T15:29:48;5.68;;;2.40;;
30948;SDS011;17637;51.984;21.208;2022-07-21T15:34:52;7.75;;;2.33;;
30948;SDS011;17637;51.984;21.208;2022-07-21T15:39:58;3.53;;;2.30;;
30948;SDS011;17637;51.984;21.208;2022-07-21T15:45:03;4.10;;;2.28;;
30948;SDS011;17637;51.984;21.208;2022-07-21T15:50:07;2.60;;;1.90;;
30948;SDS011;17637;51.984;21.208;2022-07-21T15:55:16;6.22;;;2.38;;
30948;SDS011;17637;51.984;21.208;2022-07-21T16:00:20;4.55;;;2.50;;
30948;SDS011;17637;51.984;21.208;2022-07-21T16:05:25;3.58;;;2.50;;
30948;SDS011;17637;51.984;21.208;2022-07-21T16:10:30;7.55;;;2.40;;
30948;SDS011;17637;51.984;21.208;2022-07-21T16:15:35;4.88;;;2.10;;
30948;SDS011;17637;51.984;21.208;2022-07-21T16:20:40;4.20;;;2.30;;
30948;SDS011;17637;51.984;21.208;2022-07-21T16:25:46;4.38;;;2.17;;
30948;SDS011;17637;51.984;21.208;2022-07-21T16:30:50;3.58;;;2.30;;
30948;SDS011;17637;51.984;21.208;2022-07-21T16:35:55;5.28;;;2.35;;
30948;SDS011;17637;51.984;21.208;2022-07-21T16:41:01;7.05;;;2.28;;
30948;SDS011;17637;51.984;21.208;2022-07-21T16:46:06;5.07;;;2.35;;
30948;SDS011;17637;51.984;21.208;2022-07-21T16:51:09;5.20;;;2.17;;
30948;SDS011;17637;51.984;21.208;2022-07-21T16:56:15;4.10;;;2.05;;
30948;SDS011;17637;51.984;21.208;2022-07-21T17:01:20;5.97;;;2.45;;
30948;SDS011;17637;51.984;21.208;2022-07-21T17:06:50;6.18;;;2.38;;
30948;SDS011;17637;51.984;21.208;2022-07-21T17:11:55;5.40;;;2.70;;
30948;SDS011;17637;51.984;21.208;2022-07-21T17:16:59;9.95;;;3.30;;
30948;SDS011;17637;51.984;21.208;2022-07-21T17:22:04;6.18;;;2.95;;
30948;SDS011;17637;51.984;21.208;2022-07-21T17:27:10;6.57;;;3.47;;
30948;SDS011;17637;51.984;21.208;2022-07-21T17:32:14;6.10;;;3.53;;
30948;SDS011;17637;51.984;21.208;2022-07-21T17:37:21;4.85;;;2.85;;
30948;SDS011;17637;51.984;21.208;2022-07-21T17:42:29;8.95;;;3.60;;
30948;SDS011;17637;51.984;21.208;2022-07-21T17:47:33;6.57;;;3.30;;
30948;SDS011;17637;51.984;21.208;2022-07-21T17:52:41;21.23;;;6.45;;
30948;SDS011;17637;51.984;21.208;2022-07-21T17:57:48;13.20;;;5.20;;
30948;SDS011;17637;51.984;21.208;2022-07-21T18:03:10;8.10;;;4.93;;
30948;SDS011;17637;51.984;21.208;2022-07-21T18:08:14;9.88;;;4.35;;
30948;SDS011;17637;51.984;21.208;2022-07-21T18:13:20;7.22;;;4.07;;
30948;SDS011;17637;51.984;21.208;2022-07-21T18:18:24;9.30;;;4.40;;
30948;SDS011;17637;51.984;21.208;2022-07-21T18:23:29;7.72;;;4.65;;
30948;SDS011;17637;51.984;21.208;2022-07-21T18:28:38;12.05;;;5.72;;
30948;SDS011;17637;51.984;21.208;2022-07-21T18:33:42;9.88;;;4.70;;
30948;SDS011;17637;51.984;21.208;2022-07-21T18:38:46;12.20;;;5.20;;
30948;SDS011;17637;51.984;21.208;2022-07-21T18:43:53;13.48;;;6.30;;
30948;SDS011;17637;51.984;21.208;2022-07-21T18:48:58;10.55;;;5.57;;
30948;SDS011;17637;51.984;21.208;2022-07-21T18:54:05;9.52;;;5.13;;
30948;SDS011;17637;51.984;21.208;2022-07-21T18:59:19;9.40;;;5.35;;
30948;SDS011;17637;51.984;21.208;2022-07-21T19:04:26;12.45;;;5.85;;
30948;SDS011;17637;51.984;21.208;2022-07-21T19:09:30;10.23;;;5.82;;
30948;SDS011;17637;51.984;21.208;2022-07-21T19:14:44;9.70;;;5.90;;
30948;SDS011;17637;51.984;21.208;2022-07-21T19:24:55;10.40;;;5.95;;
30948;SDS011;17637;51.984;21.208;2022-07-21T19:30:06;12.18;;;7.05;;
30948;SDS011;17637;51.984;21.208;2022-07-21T19:35:14;16.10;;;7.60;;
30948;SDS011;17637;51.984;21.208;2022-07-21T19:40:21;12.32;;;7.20;;
30948;SDS011;17637;51.984;21.208;2022-07-21T19:45:35;20.08;;;10.13;;
30948;SDS011;17637;51.984;21.208;2022-07-21T19:50:41;21.95;;;9.82;;
30948;SDS011;17637;51.984;21.208;2022-07-21T19:55:51;17.50;;;10.90;;
30948;SDS011;17637;51.984;21.208;2022-07-21T20:01:03;22.33;;;12.40;;
30948;SDS011;17637;51.984;21.208;2022-07-21T20:06:15;27.20;;;14.20;;
30948;SDS011;17637;51.984;21.208;2022-07-21T20:11:39;32.42;;;15.93;;
30948;SDS011;17637;51.984;21.208;2022-07-21T20:16:54;31.50;;;16.35;;
30948;SDS011;17637;51.984;21.208;2022-07-21T20:22:20;28.52;;;16.95;;
30948;SDS011;17637;51.984;21.208;2022-07-21T20:27:28;27.48;;;14.40;;
30948;SDS011;17637;51.984;21.208;2022-07-21T20:32:37;33.25;;;17.27;;
30948;SDS011;17637;51.984;21.208;2022-07-21T20:37:44;28.13;;;15.98;;
30948;SDS011;17637;51.984;21.208;2022-07-21T20:42:51;23.70;;;14.85;;
30948;SDS011;17637;51.984;21.208;2022-07-21T20:48:05;21.98;;;12.95;;
30948;SDS011;17637;51.984;21.208;2022-07-21T20:53:16;21.25;;;14.73;;
30948;SDS011;17637;51.984;21.208;2022-07-21T20:58:34;23.40;;;13.52;;
30948;SDS011;17637;51.984;21.208;2022-07-21T21:03:46;18.42;;;12.50;;
30948;SDS011;17637;51.984;21.208;2022-07-21T21:08:54;19.30;;;10.68;;
30948;SDS011;17637;51.984;21.208;2022-07-21T21:14:01;19.67;;;10.50;;
30948;SDS011;17637;51.984;21.208;2022-07-21T21:19:14;17.48;;;10.32;;
30948;SDS011;17637;51.984;21.208;2022-07-21T21:24:20;19.85;;;10.77;;
30948;SDS011;17637;51.984;21.208;2022-07-21T21:29:30;17.05;;;9.98;;
30948;SDS011;17637;51.984;21.208;2022-07-21T21:34:40;15.57;;;10.88;;
30948;SDS011;17637;51.984;21.208;2022-07-21T21:40:01;16.42;;;11.15;;
30948;SDS011;17637;51.984;21.208;2022-07-21T21:45:11;18.92;;;10.10;;
30948;SDS011;17637;51.984;21.208;2022-07-21T21:50:20;13.65;;;9.52;;
30948;SDS011;17637;51.984;21.208;2022-07-21T21:55:25;13.30;;;9.60;;
30948;SDS011;17637;51.984;21.208;2022-07-21T22:00:30;16.05;;;9.73;;
30948;SDS011;17637;51.984;21.208;2022-07-21T22:05:38;18.35;;;10.00;;
30948;SDS011;17637;51.984;21.208;2022-07-21T22:10:45;16.10;;;9.70;;
30948;SDS011;17637;51.984;21.208;2022-07-21T22:15:52;13.85;;;9.80;;
30948;SDS011;17637;51.984;21.208;2022-07-21T22:20:57;12.55;;;8.45;;
30948;SDS011;17637;51.984;21.208;2022-07-21T22:26:01;14.00;;;10.38;;
30948;SDS011;17637;51.984;21.208;2022-07-21T22:31:06;13.80;;;9.63;;
30948;SDS011;17637;51.984;21.208;2022-07-21T22:36:12;17.13;;;10.00;;
30948;SDS011;17637;51.984;21.208;2022-07-21T22:41:15;13.30;;;8.68;;
30948;SDS011;17637;51.984;21.208;2022-07-21T22:46:18;16.92;;;8.98;;
30948;SDS011;17637;51.984;21.208;2022-07-21T22:51:23;15.77;;;8.70;;
30948;SDS011;17637;51.984;21.208;2022-07-21T22:56:26;12.27;;;8.57;;
30948;SDS011;17637;51.984;21.208;2022-07-21T23:01:29;12.52;;;8.35;;
30948;SDS011;17637;51.984;21.208;2022-07-21T23:06:35;11.73;;;7.97;;
30948;SDS011;17637;51.984;21.208;2022-07-21T23:11:38;11.73;;;9.18;;
30948;SDS011;17637;51.984;21.208;2022-07-21T23:16:41;13.60;;;9.30;;
30948;SDS011;17637;51.984;21.208;2022-07-21T23:21:46;15.60;;;10.55;;
30948;SDS011;17637;51.984;21.208;2022-07-21T23:26:49;16.60;;;9.40;;
30948;SDS011;17637;51.984;21.208;2022-07-21T23:31:52;14.23;;;9.68;;
30948;SDS011;17637;51.984;21.208;2022-07-21T23:36:56;15.23;;;9.60;;
30948;SDS011;17637;51.984;21.208;2022-07-21T23:41:59;16.60;;;10.35;;
30948;SDS011;17637;51.984;21.208;2022-07-21T23:47:02;13.25;;;9.93;;
30948;SDS011;17637;51.984;21.208;2022-07-21T23:52:07;15.85;;;10.93;;
30948;SDS011;17637;51.984;21.208;2022-07-21T23:57:10;11.40;;;9.40;;
